Time;durP1;ratioP1;P1;durP2;ratioP2;P2;SDS_P1;SDS_P2;PMS_P1;PMS_P2;Temp;Humidity;BMP_temperature;BMP_pressure;BME280_temperature;BME280_humidity;BME280_pressure;Samples;Min_cycle;Max_cycle;Signal;HPM_P1;HPM_P2
2023/11/14 00:02:00;;;;;;;35.27;20.67;;;;;;;;;;4314102;32;318085;-82
2023/11/14 00:04:27;;;;;;;37.73;19.97;;;;;;;;;;4330348;32;317840;-81
2023/11/14 00:06:54;;;;;;;37.47;20.20;;;;;;;;;;4305714;33;318329;-84
2023/11/14 00:09:22;;;;;;;39.33;22.90;;;;;;;;;;4325858;32;318597;-82
2023/11/14 00:11:49;;;;;;;44.77;22.93;;;;;;;;;;4318688;32;318246;-84
2023/11/14 00:14:16;;;;;;;44.53;23.97;;;;;;;;;;4326350;32;318034;-83
2023/11/14 00:16:43;;;;;;;43.27;26.57;;;;;;;;;;4306108;32;318368;-87
2023/11/14 00:19:10;;;;;;;56.57;31.43;;;;;;;;;;4316675;32;318300;-82
2023/11/14 00:21:37;;;;;;;48.67;28.63;;;;;;;;;;4313830;33;318535;-83
2023/11/14 00:24:04;;;;;;;52.73;30.53;;;;;;;;;;4304586;32;318470;-83
2023/11/14 00:26:32;;;;;;;68.40;32.27;;;;;;;;;;4331181;32;317840;-82
2023/11/14 00:28:59;;;;;;;58.67;32.13;;;;;;;;;;4313347;32;318349;-81
2023/11/14 00:31:26;;;;;;;53.93;33.67;;;;;;;;;;4316484;33;318020;-81
2023/11/14 00:33:53;;;;;;;51.50;28.60;;;;;;;;;;4296795;33;318728;-82
2023/11/14 00:36:19;;;;;;;44.23;25.30;;;;;;;;;;4313182;33;318162;-82
2023/11/14 00:38:46;;;;;;;51.53;25.17;;;;;;;;;;4313283;32;325295;-82
2023/11/14 00:41:13;;;;;;;47.97;26.07;;;;;;;;;;4331571;32;318303;-81
2023/11/14 00:43:41;;;;;;;56.77;26.97;;;;;;;;;;4331304;32;318578;-83
2023/11/14 00:46:12;;;;;;;54.30;27.30;;;;;;;;;;4312310;32;418179;-82
2023/11/14 00:48:39;;;;;;;47.57;25.07;;;;;;;;;;4331479;32;317757;-82
2023/11/14 00:51:06;;;;;;;64.47;27.27;;;;;;;;;;4320599;32;318775;-82
2023/11/14 00:53:33;;;;;;;75.90;31.20;;;;;;;;;;4315675;33;318362;-83
2023/11/14 00:55:59;;;;;;;84.87;36.07;;;;;;;;;;4296817;33;318446;-82
2023/11/14 00:58:26;;;;;;;70.97;29.43;;;;;;;;;;4316705;33;318116;-84
2023/11/14 01:00:55;;;;;;;81.17;34.27;;;;;;;;;;4317142;33;318386;-81
2023/11/14 01:03:24;;;;;;;78.57;35.37;;;;;;;;;;4328497;32;317799;-81
2023/11/14 01:05:52;;;;;;;80.07;37.30;;;;;;;;;;4316467;33;318365;-85
2023/11/14 01:08:19;;;;;;;68.97;33.67;;;;;;;;;;4327159;32;318517;-83
2023/11/14 01:10:47;;;;;;;64.17;30.37;;;;;;;;;;4320897;32;318108;-84
2023/11/14 01:13:14;;;;;;;53.77;25.93;;;;;;;;;;4331181;32;318376;-83
2023/11/14 01:15:41;;;;;;;48.07;24.50;;;;;;;;;;4319707;33;318477;-85
2023/11/14 01:18:10;;;;;;;48.57;24.63;;;;;;;;;;4322606;33;318391;-84
2023/11/14 01:20:36;;;;;;;58.97;25.43;;;;;;;;;;4330137;33;350147;-83
2023/11/14 01:23:03;;;;;;;47.87;23.77;;;;;;;;;;4320814;33;318907;-84
2023/11/14 01:25:30;;;;;;;48.80;21.90;;;;;;;;;;4329884;33;318303;-82
2023/11/14 01:27:57;;;;;;;33.97;20.43;;;;;;;;;;4310835;33;318285;-81
2023/11/14 01:30:24;;;;;;;37.20;20.10;;;;;;;;;;4315956;33;317792;-83
2023/11/14 01:32:51;;;;;;;35.80;18.77;;;;;;;;;;4307272;33;318378;-83
2023/11/14 01:35:19;;;;;;;36.63;17.53;;;;;;;;;;4315679;33;318351;-83
2023/11/14 01:37:46;;;;;;;39.53;17.23;;;;;;;;;;4312299;33;317768;-83
2023/11/14 01:40:13;;;;;;;34.03;17.10;;;;;;;;;;4324393;33;318490;-83
2023/11/14 01:42:40;;;;;;;36.50;16.13;;;;;;;;;;4329191;33;317953;-82
2023/11/14 01:45:07;;;;;;;34.17;17.20;;;;;;;;;;4318538;33;418906;-83
2023/11/14 01:47:34;;;;;;;35.93;17.53;;;;;;;;;;4330887;33;318307;-83
2023/11/14 01:50:02;;;;;;;44.80;17.87;;;;;;;;;;4314229;33;318292;-83
2023/11/14 01:52:30;;;;;;;35.77;18.23;;;;;;;;;;4328854;33;318314;-82
2023/11/14 01:54:57;;;;;;;40.90;18.87;;;;;;;;;;4321228;33;318639;-83
2023/11/14 01:57:24;;;;;;;48.97;20.70;;;;;;;;;;4330529;32;318588;-81
2023/11/14 01:59:52;;;;;;;46.47;18.67;;;;;;;;;;4318503;32;318697;-87
2023/11/14 02:02:19;;;;;;;52.77;20.20;;;;;;;;;;4332688;32;318410;-82
2023/11/14 02:04:47;;;;;;;51.40;19.97;;;;;;;;;;4320451;32;318378;-83
2023/11/14 02:07:14;;;;;;;37.93;19.20;;;;;;;;;;4333538;32;318509;-85
2023/11/14 02:09:42;;;;;;;44.33;20.73;;;;;;;;;;4323805;32;318800;-83
2023/11/14 02:12:09;;;;;;;45.10;19.30;;;;;;;;;;4327426;32;317927;-84
2023/11/14 02:14:36;;;;;;;47.93;20.90;;;;;;;;;;4332229;32;318453;-84
2023/11/14 02:17:04;;;;;;;40.97;19.83;;;;;;;;;;4325231;32;318043;-84
2023/11/14 02:19:31;;;;;;;32.60;17.03;;;;;;;;;;4337631;32;318630;-86
2023/11/14 02:21:58;;;;;;;40.13;18.10;;;;;;;;;;4316258;32;318592;-81
2023/11/14 02:24:26;;;;;;;40.80;17.73;;;;;;;;;;4342166;32;342317;-85
2023/11/14 02:26:54;;;;;;;38.43;18.50;;;;;;;;;;4322693;32;318720;-81
2023/11/14 02:29:22;;;;;;;34.90;16.67;;;;;;;;;;4323006;32;318690;-81
2023/11/14 02:31:49;;;;;;;33.50;17.77;;;;;;;;;;4306568;33;318460;-84
2023/11/14 02:34:16;;;;;;;31.23;17.47;;;;;;;;;;4314525;33;318569;-83
2023/11/14 02:36:43;;;;;;;31.80;16.73;;;;;;;;;;4307317;32;318593;-84
2023/11/14 02:39:10;;;;;;;25.43;15.43;;;;;;;;;;4324367;32;318031;-81
2023/11/14 02:41:37;;;;;;;42.93;16.87;;;;;;;;;;4330895;32;317752;-83
2023/11/14 02:44:06;;;;;;;35.47;17.93;;;;;;;;;;4314917;32;318464;-84
2023/11/14 02:46:33;;;;;;;34.77;16.03;;;;;;;;;;4332529;32;318420;-82
2023/11/14 02:49:11;;;;;;;48.17;20.03;;;;;;;;;;4321545;32;317884;-82
2023/11/14 02:51:38;;;;;;;54.70;23.20;;;;;;;;;;4331766;32;318430;-82
2023/11/14 02:54:06;;;;;;;52.47;23.00;;;;;;;;;;4313923;32;318457;-83
2023/11/14 02:56:33;;;;;;;40.57;18.70;;;;;;;;;;4331793;32;318252;-81
2023/11/14 02:59:00;;;;;;;40.67;20.67;;;;;;;;;;4321781;32;317877;-81
2023/11/14 03:01:28;;;;;;;45.13;21.53;;;;;;;;;;4333371;32;318769;-81
2023/11/14 03:03:55;;;;;;;45.87;23.83;;;;;;;;;;4315698;32;318220;-83
2023/11/14 03:06:23;;;;;;;44.10;24.87;;;;;;;;;;4331171;32;317889;-83
2023/11/14 03:08:50;;;;;;;29.03;18.73;;;;;;;;;;4322029;32;319148;-83
2023/11/14 03:11:17;;;;;;;25.93;14.73;;;;;;;;;;4331472;32;317932;-83
2023/11/14 03:13:44;;;;;;;26.50;13.27;;;;;;;;;;4319131;32;345251;-83
2023/11/14 03:16:13;;;;;;;21.00;13.13;;;;;;;;;;4324782;32;318425;-83
2023/11/14 03:18:42;;;;;;;23.43;13.43;;;;;;;;;;4331334;32;317664;-83
2023/11/14 03:21:09;;;;;;;16.83;11.57;;;;;;;;;;4319287;32;419400;-85
2023/11/14 03:23:37;;;;;;;19.17;12.07;;;;;;;;;;4332086;32;318914;-83
2023/11/14 03:26:05;;;;;;;23.50;13.20;;;;;;;;;;4315066;32;318317;-83
2023/11/14 03:28:32;;;;;;;24.40;12.20;;;;;;;;;;4329972;32;318380;-83
2023/11/14 03:30:59;;;;;;;22.60;13.53;;;;;;;;;;4307621;32;330834;-85
2023/11/14 03:33:25;;;;;;;21.07;14.40;;;;;;;;;;4319532;32;318400;-86
2023/11/14 03:35:54;;;;;;;24.90;14.40;;;;;;;;;;4316065;32;318487;-82
2023/11/14 03:38:20;;;;;;;46.20;22.83;;;;;;;;;;4320600;32;331486;-82
2023/11/14 03:40:49;;;;;;;47.80;24.60;;;;;;;;;;4305976;32;318822;-80
2023/11/14 03:43:15;;;;;;;43.40;22.77;;;;;;;;;;4317753;33;318263;-84
2023/11/14 03:45:42;;;;;;;45.00;21.23;;;;;;;;;;4311294;32;318364;-82
2023/11/14 03:48:09;;;;;;;56.43;27.53;;;;;;;;;;4325342;32;318424;-81
2023/11/14 03:50:36;;;;;;;70.33;28.17;;;;;;;;;;4330719;32;318316;-81
2023/11/14 03:53:04;;;;;;;53.17;25.53;;;;;;;;;;4319075;32;352607;-82
2023/11/14 03:55:31;;;;;;;36.90;20.27;;;;;;;;;;4329630;32;318886;-82
2023/11/14 03:57:57;;;;;;;34.43;18.53;;;;;;;;;;4313184;32;318331;-83
2023/11/14 04:00:24;;;;;;;27.70;16.40;;;;;;;;;;4330371;32;318481;-83
2023/11/14 04:02:51;;;;;;;21.30;13.57;;;;;;;;;;4322159;32;318270;-82
2023/11/14 04:05:18;;;;;;;23.23;13.40;;;;;;;;;;4329553;32;318460;-82
2023/11/14 04:07:45;;;;;;;24.73;13.70;;;;;;;;;;4320582;32;318998;-81
2023/11/14 04:10:13;;;;;;;21.20;13.10;;;;;;;;;;4324070;32;318259;-83
2023/11/14 04:12:40;;;;;;;27.60;14.20;;;;;;;;;;4331758;32;318189;-84
2023/11/14 04:15:08;;;;;;;30.30;14.13;;;;;;;;;;4318870;32;417394;-82
2023/11/14 04:17:35;;;;;;;21.67;14.30;;;;;;;;;;4330834;32;318007;-82
2023/11/14 04:20:02;;;;;;;31.43;14.50;;;;;;;;;;4313004;32;318461;-82
2023/11/14 04:22:29;;;;;;;22.33;11.87;;;;;;;;;;4330565;32;318248;-81
2023/11/14 04:24:57;;;;;;;23.47;12.47;;;;;;;;;;4320706;32;318424;-82
2023/11/14 04:27:25;;;;;;;34.47;16.37;;;;;;;;;;4331599;32;318522;-81
2023/11/14 04:29:52;;;;;;;34.83;17.67;;;;;;;;;;4292435;32;318359;-85
2023/11/14 04:32:19;;;;;;;38.40;17.20;;;;;;;;;;4314163;33;318182;-82
2023/11/14 04:34:46;;;;;;;36.83;19.27;;;;;;;;;;4305090;33;318221;-82
2023/11/14 04:37:12;;;;;;;42.83;17.13;;;;;;;;;;4318248;32;318328;-82
2023/11/14 04:39:39;;;;;;;37.70;18.80;;;;;;;;;;4331567;32;318295;-83
2023/11/14 04:42:06;;;;;;;36.33;18.17;;;;;;;;;;4312921;32;417131;-83
2023/11/14 04:44:34;;;;;;;37.77;18.83;;;;;;;;;;4329744;32;317713;-82
2023/11/14 04:47:01;;;;;;;40.10;18.17;;;;;;;;;;4321858;32;318109;-81
2023/11/14 04:49:28;;;;;;;39.57;20.17;;;;;;;;;;4329939;32;318297;-82
2023/11/14 04:51:55;;;;;;;43.47;21.23;;;;;;;;;;4313465;32;317757;-81
2023/11/14 04:54:22;;;;;;;41.37;21.13;;;;;;;;;;4331545;33;318540;-81
2023/11/14 04:56:49;;;;;;;45.30;20.17;;;;;;;;;;4320181;33;317755;-82
2023/11/14 04:59:16;;;;;;;44.83;19.90;;;;;;;;;;4330214;33;318631;-83
2023/11/14 05:01:44;;;;;;;41.67;20.07;;;;;;;;;;4318298;33;348310;-82
2023/11/14 05:04:11;;;;;;;45.77;22.03;;;;;;;;;;4323414;33;318313;-83
2023/11/14 05:06:38;;;;;;;48.20;21.23;;;;;;;;;;4329782;33;317842;-83
2023/11/14 05:09:05;;;;;;;45.27;21.03;;;;;;;;;;4320335;33;321019;-84
2023/11/14 05:11:37;;;;;;;51.60;22.67;;;;;;;;;;4328313;33;318291;-83
2023/11/14 05:14:05;;;;;;;49.93;24.33;;;;;;;;;;4314633;33;318643;-83
2023/11/14 05:16:39;;;;;;;44.80;22.47;;;;;;;;;;4329833;33;318356;-83
2023/11/14 05:19:07;;;;;;;42.13;20.77;;;;;;;;;;4307847;33;318109;-83
2023/11/14 05:21:34;;;;;;;34.03;18.97;;;;;;;;;;4330380;33;317569;-84
2023/11/14 05:24:01;;;;;;;39.20;21.30;;;;;;;;;;4312321;33;318169;-81
2023/11/14 05:26:28;;;;;;;41.50;21.97;;;;;;;;;;4330302;33;318394;-82
2023/11/14 05:28:54;;;;;;;42.87;22.43;;;;;;;;;;4322534;33;317633;-82
2023/11/14 05:31:21;;;;;;;53.93;22.27;;;;;;;;;;4332372;32;317958;-82
2023/11/14 05:33:50;;;;;;;40.80;22.70;;;;;;;;;;4323148;32;318150;-82
2023/11/14 05:36:19;;;;;;;42.33;23.83;;;;;;;;;;4330909;32;318179;-83
2023/11/14 05:38:46;;;;;;;52.87;25.80;;;;;;;;;;4320590;32;347054;-82
2023/11/14 05:41:14;;;;;;;54.17;26.13;;;;;;;;;;4333065;32;317523;-85
2023/11/14 05:43:40;;;;;;;49.20;24.33;;;;;;;;;;4333188;32;318150;-82
2023/11/14 05:46:07;;;;;;;39.27;23.50;;;;;;;;;;4313185;32;418832;-81
2023/11/14 05:48:34;;;;;;;58.73;27.67;;;;;;;;;;4331576;32;318210;-82
2023/11/14 05:51:01;;;;;;;64.28;27.10;;;;;;;;;;4322354;32;318711;-81
2023/11/14 05:53:29;;;;;;;60.90;27.17;;;;;;;;;;4330415;32;318354;-81
2023/11/14 05:55:56;;;;;;;67.70;27.50;;;;;;;;;;4315039;32;318395;-82
2023/11/14 05:58:23;;;;;;;56.40;25.93;;;;;;;;;;4328480;32;317781;-82
2023/11/14 06:00:50;;;;;;;61.87;28.73;;;;;;;;;;4314996;32;318808;-82
2023/11/14 06:03:17;;;;;;;57.83;27.83;;;;;;;;;;4319051;32;318439;-84
2023/11/14 06:05:44;;;;;;;62.43;29.10;;;;;;;;;;4321532;32;318490;-83
2023/11/14 06:08:11;;;;;;;67.00;31.10;;;;;;;;;;4333258;32;318341;-84
2023/11/14 06:10:39;;;;;;;61.80;30.17;;;;;;;;;;4327601;32;318855;-84
2023/11/14 06:13:06;;;;;;;76.17;31.77;;;;;;;;;;4326036;32;317750;-84
2023/11/14 06:15:33;;;;;;;70.73;34.50;;;;;;;;;;4330607;32;317604;-84
2023/11/14 06:18:00;;;;;;;64.17;32.83;;;;;;;;;;4322006;32;317628;-84
2023/11/14 06:20:27;;;;;;;75.33;35.30;;;;;;;;;;4321588;32;318464;-83
2023/11/14 06:22:53;;;;;;;79.30;39.20;;;;;;;;;;4316141;32;331017;-84
2023/11/14 06:25:21;;;;;;;87.60;42.93;;;;;;;;;;4339350;32;317676;-83
2023/11/14 06:27:49;;;;;;;71.20;33.73;;;;;;;;;;4324204;32;350848;-82
2023/11/14 06:30:16;;;;;;;78.10;34.73;;;;;;;;;;4318953;33;318363;-81
2023/11/14 06:32:43;;;;;;;78.43;34.17;;;;;;;;;;4320465;32;318823;-81
2023/11/14 06:35:10;;;;;;;71.20;36.97;;;;;;;;;;4329874;32;318371;-82
2023/11/14 06:37:38;;;;;;;84.87;38.23;;;;;;;;;;4327210;32;318085;-81
2023/11/14 06:40:05;;;;;;;81.17;37.40;;;;;;;;;;4304182;32;418648;-84
2023/11/14 06:42:32;;;;;;;76.57;34.80;;;;;;;;;;4330403;32;318278;-84
2023/11/14 06:48:12;;;;;;;65.53;34.57;;;;;;;;;;4319226;32;389374;-84
2023/11/14 06:50:40;;;;;;;77.73;35.83;;;;;;;;;;4317093;32;317840;-83
2023/11/14 06:53:07;;;;;;;71.00;34.93;;;;;;;;;;4322586;32;318876;-86
2023/11/14 06:55:35;;;;;;;85.60;41.87;;;;;;;;;;4311142;32;317504;-85
2023/11/14 06:58:01;;;;;;;100.50;49.63;;;;;;;;;;4321629;32;318587;-84
2023/11/14 07:00:28;;;;;;;113.40;55.77;;;;;;;;;;4338019;32;319504;-86
2023/11/14 07:02:55;;;;;;;98.00;48.93;;;;;;;;;;4315716;32;319151;-86
2023/11/14 07:05:24;;;;;;;79.33;43.67;;;;;;;;;;4330387;32;318612;-80
2023/11/14 07:07:52;;;;;;;73.13;39.27;;;;;;;;;;4322496;32;318778;-80
2023/11/14 07:10:19;;;;;;;90.60;44.00;;;;;;;;;;4319691;32;317852;-82
2023/11/14 07:12:47;;;;;;;82.47;42.97;;;;;;;;;;4315736;32;317932;-79
2023/11/14 07:15:13;;;;;;;94.37;44.57;;;;;;;;;;4322690;32;317773;-81
2023/11/14 07:17:41;;;;;;;91.07;46.57;;;;;;;;;;4322343;32;318293;-79
2023/11/14 07:20:10;;;;;;;108.47;45.37;;;;;;;;;;4330390;32;334105;-81
2023/11/14 07:22:40;;;;;;;90.67;46.87;;;;;;;;;;4329980;32;319473;-80
2023/11/14 07:25:09;;;;;;;90.77;43.00;;;;;;;;;;4309755;32;418369;-81
2023/11/14 07:27:38;;;;;;;84.13;42.70;;;;;;;;;;4328780;32;317762;-82
2023/11/14 07:30:06;;;;;;;119.73;51.87;;;;;;;;;;4304036;33;417360;-80
2023/11/14 07:32:33;;;;;;;95.67;49.07;;;;;;;;;;4328203;32;319594;-81
2023/11/14 07:35:00;;;;;;;102.70;52.13;;;;;;;;;;4312782;32;318406;-82
2023/11/14 07:37:27;;;;;;;94.60;47.30;;;;;;;;;;4329956;32;318578;-82
2023/11/14 07:39:55;;;;;;;104.10;56.03;;;;;;;;;;4319667;32;340895;-80
2023/11/14 07:42:23;;;;;;;107.60;54.50;;;;;;;;;;4330843;32;319322;-84
2023/11/14 07:44:50;;;;;;;104.27;59.23;;;;;;;;;;4301755;32;319631;-79
2023/11/14 07:47:17;;;;;;;92.17;49.73;;;;;;;;;;4323753;32;319524;-82
2023/11/14 07:49:44;;;;;;;90.37;50.13;;;;;;;;;;4319870;32;318336;-80
2023/11/14 07:52:10;;;;;;;83.67;47.60;;;;;;;;;;4329954;32;318234;-82
2023/11/14 07:54:37;;;;;;;98.10;49.23;;;;;;;;;;4328773;32;317874;-81
2023/11/14 07:57:06;;;;;;;89.17;46.73;;;;;;;;;;4310431;32;418971;-82
2023/11/14 07:59:33;;;;;;;79.43;43.10;;;;;;;;;;4331764;32;318189;-80
2023/11/14 08:01:59;;;;;;;82.53;47.37;;;;;;;;;;4318771;32;318196;-83
2023/11/14 08:04:27;;;;;;;99.53;53.97;;;;;;;;;;4322175;32;318516;-79
2023/11/14 08:06:54;;;;;;;92.03;49.00;;;;;;;;;;4311666;32;318692;-81
2023/11/14 08:09:21;;;;;;;79.33;43.77;;;;;;;;;;4330376;32;317542;-79
2023/11/14 08:11:48;;;;;;;69.97;41.83;;;;;;;;;;4319324;32;336043;-79
2023/11/14 08:14:16;;;;;;;86.57;44.63;;;;;;;;;;4310680;32;318895;-82
2023/11/14 08:16:43;;;;;;;92.17;47.80;;;;;;;;;;4321382;32;318353;-79
2023/11/14 08:19:10;;;;;;;88.63;47.47;;;;;;;;;;4324319;32;317780;-80
2023/11/14 08:21:37;;;;;;;77.23;43.90;;;;;;;;;;4329684;32;318254;-81
2023/11/14 08:24:04;;;;;;;56.07;32.03;;;;;;;;;;4316691;32;417495;-81
2023/11/14 08:26:31;;;;;;;50.90;30.73;;;;;;;;;;4326559;32;318112;-81
2023/11/14 08:28:58;;;;;;;57.88;34.05;;;;;;;;;;4311014;32;326226;-83
2023/11/14 08:31:26;;;;;;;50.43;26.60;;;;;;;;;;4328172;32;318181;-82
2023/11/14 08:33:55;;;;;;;47.00;24.93;;;;;;;;;;4318882;32;318408;-84
2023/11/14 08:36:22;;;;;;;30.47;20.53;;;;;;;;;;4328871;32;318864;-82
2023/11/14 08:38:48;;;;;;;37.40;22.33;;;;;;;;;;4299875;32;318475;-84
2023/11/14 08:41:15;;;;;;;34.97;18.87;;;;;;;;;;4312475;33;317634;-86
2023/11/14 08:43:42;;;;;;;29.97;18.00;;;;;;;;;;4313762;32;318412;-85
2023/11/14 08:46:09;;;;;;;25.23;16.00;;;;;;;;;;4330405;32;317620;-85
2023/11/14 08:48:37;;;;;;;19.67;13.13;;;;;;;;;;4329862;32;318450;-82
2023/11/14 08:51:05;;;;;;;26.03;12.90;;;;;;;;;;4310004;32;417718;-83
2023/11/14 08:53:32;;;;;;;17.37;11.17;;;;;;;;;;4330557;32;318341;-84
2023/11/14 08:55:58;;;;;;;17.90;11.30;;;;;;;;;;4320610;33;318235;-83
2023/11/14 08:58:25;;;;;;;18.27;10.57;;;;;;;;;;4320169;33;318532;-83
2023/11/14 09:00:54;;;;;;;17.63;11.10;;;;;;;;;;4305506;33;318132;-85
2023/11/14 09:03:21;;;;;;;14.07;9.53;;;;;;;;;;4331749;33;317432;-86
2023/11/14 09:05:50;;;;;;;15.10;10.37;;;;;;;;;;4322859;32;317124;-88
2023/11/14 09:08:16;;;;;;;18.33;9.73;;;;;;;;;;4334994;32;318486;-86
2023/11/14 09:10:43;;;;;;;15.67;9.50;;;;;;;;;;4323744;32;317308;-83
2023/11/14 09:13:11;;;;;;;14.47;10.00;;;;;;;;;;4324523;32;318256;-87
2023/11/14 09:15:39;;;;;;;15.50;10.53;;;;;;;;;;4309229;33;319405;-85
2023/11/14 09:18:06;;;;;;;14.63;9.63;;;;;;;;;;4318444;33;319252;-85
2023/11/14 09:20:33;;;;;;;15.30;10.97;;;;;;;;;;4319433;33;318116;-85
2023/11/14 09:23:02;;;;;;;22.20;13.47;;;;;;;;;;4300206;33;319348;-85
2023/11/14 09:25:29;;;;;;;23.67;13.87;;;;;;;;;;4321488;32;318572;-82
2023/11/14 09:27:56;;;;;;;17.40;12.67;;;;;;;;;;4321476;32;319249;-85
2023/11/14 09:30:23;;;;;;;25.87;12.83;;;;;;;;;;4331062;32;319207;-85
2023/11/14 09:32:50;;;;;;;19.37;13.60;;;;;;;;;;4315865;32;318968;-84
2023/11/14 09:35:17;;;;;;;21.33;14.10;;;;;;;;;;4318702;32;319972;-84
2023/11/14 09:37:43;;;;;;;23.93;15.23;;;;;;;;;;4315064;32;319130;-86
2023/11/14 09:40:20;;;;;;;31.17;17.40;;;;;;;;;;4316984;33;318502;-87
2023/11/14 09:42:48;;;;;;;38.13;22.57;;;;;;;;;;4300082;33;319199;-85
2023/11/14 09:45:18;;;;;;;26.53;17.83;;;;;;;;;;4318838;33;319477;-83
2023/11/14 09:47:45;;;;;;;29.70;19.83;;;;;;;;;;4308831;33;319698;-83
2023/11/14 09:50:12;;;;;;;27.20;18.43;;;;;;;;;;4317773;33;319571;-84
2023/11/14 09:52:40;;;;;;;26.87;19.03;;;;;;;;;;4307603;33;319250;-83
2023/11/14 09:55:11;;;;;;;26.30;18.97;;;;;;;;;;4320387;32;319385;-84
2023/11/14 09:57:39;;;;;;;40.60;20.80;;;;;;;;;;4333364;32;319362;-84
2023/11/14 10:00:11;;;;;;;28.00;20.10;;;;;;;;;;4313445;32;419776;-84
2023/11/14 10:02:40;;;;;;;30.83;20.30;;;;;;;;;;4327184;32;319333;-84
2023/11/14 10:05:09;;;;;;;28.60;17.63;;;;;;;;;;4325127;32;319284;-84
2023/11/14 10:07:37;;;;;;;27.97;15.93;;;;;;;;;;4332063;32;344750;-84
2023/11/14 10:10:05;;;;;;;23.03;14.23;;;;;;;;;;4322247;32;318623;-84
2023/11/14 10:12:36;;;;;;;26.53;13.03;;;;;;;;;;4331389;32;318997;-83
2023/11/14 10:15:07;;;;;;;16.10;11.40;;;;;;;;;;4313722;32;339262;-84
2023/11/14 10:17:41;;;;;;;20.90;12.67;;;;;;;;;;4331393;32;318584;-82
2023/11/14 10:20:09;;;;;;;19.03;11.13;;;;;;;;;;4318137;32;419862;-84
2023/11/14 10:22:36;;;;;;;20.37;9.73;;;;;;;;;;4333295;32;319645;-82
2023/11/14 10:25:03;;;;;;;15.13;10.23;;;;;;;;;;4317595;32;318743;-81
2023/11/14 10:27:33;;;;;;;12.00;8.90;;;;;;;;;;4335664;32;317430;-83
2023/11/14 10:30:00;;;;;;;14.83;9.70;;;;;;;;;;4317199;32;318476;-84
2023/11/14 10:32:28;;;;;;;10.63;7.83;;;;;;;;;;4322486;33;317866;-84
2023/11/14 10:34:55;;;;;;;15.30;8.43;;;;;;;;;;4309557;32;317730;-81
2023/11/14 10:37:32;;;;;;;19.43;8.30;;;;;;;;;;4324992;32;318271;-81
2023/11/14 10:40:02;;;;;;;14.07;8.73;;;;;;;;;;4321913;32;318643;-85
2023/11/14 10:42:29;;;;;;;15.83;8.87;;;;;;;;;;4331783;32;318429;-84
2023/11/14 10:44:59;;;;;;;11.07;8.10;;;;;;;;;;4322607;32;318340;-82
2023/11/14 10:47:39;;;;;;;17.10;9.67;;;;;;;;;;4333027;32;318736;-83
2023/11/14 10:50:08;;;;;;;15.80;9.90;;;;;;;;;;4319786;32;318193;-83
2023/11/14 10:52:37;;;;;;;14.20;8.90;;;;;;;;;;4332964;32;318783;-83
2023/11/14 10:55:06;;;;;;;17.17;9.90;;;;;;;;;;4313480;32;350849;-83
2023/11/14 10:57:34;;;;;;;16.67;9.77;;;;;;;;;;4332060;32;341218;-84
2023/11/14 11:00:08;;;;;;;14.20;10.47;;;;;;;;;;4321443;32;318344;-83
2023/11/14 11:02:37;;;;;;;15.40;10.23;;;;;;;;;;4329581;32;319687;-83
2023/11/14 11:05:06;;;;;;;19.10;11.83;;;;;;;;;;4313251;32;318859;-83
2023/11/14 11:07:33;;;;;;;22.20;11.07;;;;;;;;;;4331105;32;319142;-83
2023/11/14 11:10:00;;;;;;;19.87;12.60;;;;;;;;;;4321576;32;319254;-82
2023/11/14 11:12:29;;;;;;;17.83;11.47;;;;;;;;;;4332799;32;318207;-84
2023/11/14 11:14:56;;;;;;;18.73;10.70;;;;;;;;;;4320925;32;319509;-83
2023/11/14 11:17:38;;;;;;;15.27;11.23;;;;;;;;;;4309627;33;319250;-83
2023/11/14 11:20:09;;;;;;;19.47;11.07;;;;;;;;;;4307552;33;319216;-83
2023/11/14 11:23:12;;;;;;;17.93;12.10;;;;;;;;;;4316035;33;319448;-83
2023/11/14 11:25:41;;;;;;;24.50;13.03;;;;;;;;;;4286169;33;419612;-83
2023/11/14 11:28:30;;;;;;;19.35;11.75;;;;;;;;;;4303216;33;318820;-83
2023/11/14 11:31:07;;;;;;;24.67;14.13;;;;;;;;;;4300167;33;319277;-83
2023/11/14 11:33:36;;;;;;;22.93;16.23;;;;;;;;;;4315213;32;319544;-84
2023/11/14 11:36:31;;;;;;;23.13;15.43;;;;;;;;;;4302743;33;320055;-85
2023/11/14 11:39:00;;;;;;;16.37;11.67;;;;;;;;;;4302849;33;319397;-85
2023/11/14 11:41:27;;;;;;;23.50;11.90;;;;;;;;;;4316307;33;319519;-85
2023/11/14 11:44:15;;;;;;;18.00;11.87;;;;;;;;;;4305212;33;318817;-84
2023/11/14 11:46:44;;;;;;;16.90;11.70;;;;;;;;;;4292978;33;319710;-87
2023/11/14 11:49:32;;;;;;;24.70;12.73;;;;;;;;;;4298781;33;319369;-83
2023/11/14 11:52:16;;;;;;;28.30;13.13;;;;;;;;;;4305372;33;319292;-84
2023/11/14 11:54:46;;;;;;;26.50;14.73;;;;;;;;;;4324382;32;349345;-86
2023/11/14 11:57:13;;;;;;;23.27;13.87;;;;;;;;;;4287622;33;319699;-86
2023/11/14 12:00:17;;;;;;;22.13;12.33;;;;;;;;;;4316017;32;318808;-85
2023/11/14 12:02:47;;;;;;;23.93;13.43;;;;;;;;;;4299489;32;421254;-88
2023/11/14 12:05:18;;;;;;;28.53;15.50;;;;;;;;;;4295521;32;319027;-86
2023/11/14 12:07:48;;;;;;;23.50;14.40;;;;;;;;;;4314195;33;319406;-85
2023/11/14 12:10:17;;;;;;;27.57;19.10;;;;;;;;;;4306968;33;319583;-85
2023/11/14 12:12:47;;;;;;;22.20;14.33;;;;;;;;;;4316098;33;319364;-85
2023/11/14 12:15:17;;;;;;;18.73;13.53;;;;;;;;;;4300328;33;319596;-88
2023/11/14 12:17:52;;;;;;;21.93;13.17;;;;;;;;;;4315476;33;319103;-85
2023/11/14 12:20:20;;;;;;;20.10;12.60;;;;;;;;;;4300259;33;419786;-87
2023/11/14 12:22:49;;;;;;;24.73;12.77;;;;;;;;;;4314801;32;342769;-87
2023/11/14 12:25:18;;;;;;;22.57;13.77;;;;;;;;;;4310114;32;418085;-88
2023/11/14 12:28:00;;;;;;;23.70;14.07;;;;;;;;;;4331124;32;318928;-85
2023/11/14 12:30:28;;;;;;;21.50;14.30;;;;;;;;;;4315057;32;419049;-85
2023/11/14 12:33:06;;;;;;;20.80;13.07;;;;;;;;;;4320022;32;319099;-86
2023/11/14 12:35:50;;;;;;;22.23;12.27;;;;;;;;;;4324442;32;319520;-86
2023/11/14 12:38:28;;;;;;;26.13;13.87;;;;;;;;;;4317476;32;421594;-84
2023/11/14 12:41:15;;;;;;;26.50;15.00;;;;;;;;;;4324034;32;364261;-85
2023/11/14 12:43:43;;;;;;;25.60;14.77;;;;;;;;;;4342115;32;318839;-85
2023/11/14 12:46:10;;;;;;;24.87;15.47;;;;;;;;;;4319963;32;319949;-84
2023/11/14 12:48:37;;;;;;;32.00;15.17;;;;;;;;;;4340741;32;319398;-84
2023/11/14 12:51:04;;;;;;;25.10;14.40;;;;;;;;;;4324658;32;319053;-83
2023/11/14 12:53:32;;;;;;;28.57;14.60;;;;;;;;;;4327243;32;319913;-84
2023/11/14 12:56:00;;;;;;;20.03;13.47;;;;;;;;;;4319357;32;320496;-85
2023/11/14 12:58:27;;;;;;;21.07;14.00;;;;;;;;;;4330399;32;319898;-83
2023/11/14 13:00:54;;;;;;;19.67;14.53;;;;;;;;;;4320863;33;318947;-84
2023/11/14 13:03:21;;;;;;;24.93;14.47;;;;;;;;;;4322918;32;319728;-82
2023/11/14 13:05:49;;;;;;;28.93;14.83;;;;;;;;;;4328359;33;318809;-81
2023/11/14 13:08:16;;;;;;;24.57;16.00;;;;;;;;;;4317010;33;419837;-81
2023/11/14 13:10:46;;;;;;;41.23;21.47;;;;;;;;;;4330446;33;320034;-81
2023/11/14 13:13:13;;;;;;;29.97;18.40;;;;;;;;;;4312980;33;319540;-79
2023/11/14 13:15:40;;;;;;;33.40;17.37;;;;;;;;;;4327754;33;359435;-81
2023/11/14 13:18:08;;;;;;;26.93;16.57;;;;;;;;;;4319825;33;319732;-80
2023/11/14 13:20:35;;;;;;;25.60;14.53;;;;;;;;;;4330251;33;319953;-79
2023/11/14 13:23:03;;;;;;;29.30;14.83;;;;;;;;;;4311975;33;320076;-82
2023/11/14 13:25:31;;;;;;;31.73;18.97;;;;;;;;;;4330423;33;318951;-83
2023/11/14 13:27:59;;;;;;;32.37;18.80;;;;;;;;;;4319645;33;319487;-80
2023/11/14 13:30:27;;;;;;;31.80;18.43;;;;;;;;;;4331554;33;319506;-83
2023/11/14 13:32:54;;;;;;;30.93;17.70;;;;;;;;;;4321685;33;319523;-83
2023/11/14 13:35:20;;;;;;;23.63;13.43;;;;;;;;;;4324218;33;319624;-83
2023/11/14 13:37:47;;;;;;;23.70;12.20;;;;;;;;;;4330341;33;318900;-80
2023/11/14 13:40:14;;;;;;;16.27;9.73;;;;;;;;;;4312489;33;359247;-81
2023/11/14 13:42:41;;;;;;;19.63;9.27;;;;;;;;;;4330936;33;318400;-82
2023/11/14 13:45:10;;;;;;;15.20;8.80;;;;;;;;;;4312463;33;318568;-81
2023/11/14 13:47:37;;;;;;;12.87;7.83;;;;;;;;;;4330759;33;318425;-81
2023/11/14 13:50:05;;;;;;;12.20;9.17;;;;;;;;;;4319130;33;318890;-83
2023/11/14 13:52:33;;;;;;;13.20;9.30;;;;;;;;;;4332112;32;318725;-82
2023/11/14 13:54:59;;;;;;;15.30;8.73;;;;;;;;;;4317058;32;318312;-77
2023/11/14 13:57:26;;;;;;;23.37;9.70;;;;;;;;;;4330574;32;317857;-79
2023/11/14 13:59:55;;;;;;;17.10;10.33;;;;;;;;;;4323012;32;342965;-81
2023/11/14 14:02:23;;;;;;;20.70;13.23;;;;;;;;;;4347984;32;319631;-83
2023/11/14 14:04:50;;;;;;;27.63;18.70;;;;;;;;;;4339316;32;319507;-78
2023/11/14 14:07:18;;;;;;;46.70;20.90;;;;;;;;;;4314462;32;418197;-81
2023/11/14 14:09:45;;;;;;;35.37;20.30;;;;;;;;;;4333558;32;319852;-83
2023/11/14 14:12:13;;;;;;;33.63;20.70;;;;;;;;;;4325500;32;319534;-78
2023/11/14 14:14:40;;;;;;;33.17;20.00;;;;;;;;;;4327295;32;319078;-83
2023/11/14 14:17:09;;;;;;;34.17;19.73;;;;;;;;;;4327705;32;318752;-81